createdAt,value
2022-09-23T00:00:07.156Z,84.74
2022-09-23T00:01:07.584Z,84.80
2022-09-23T00:02:07.062Z,84.90
2022-09-23T00:03:07.451Z,85.10
2022-09-23T00:04:06.911Z,85.00
2022-09-23T00:05:07.801Z,84.83
2022-09-23T00:06:06.990Z,84.74
2022-09-23T00:07:06.876Z,84.97
2022-09-23T00:08:07.124Z,84.66
2022-09-23T00:09:07.063Z,84.52
2022-09-23T00:10:07.580Z,84.70
2022-09-23T00:11:07.100Z,84.81
2022-09-23T00:12:09.178Z,84.84
2022-09-23T00:13:06.749Z,85.08
2022-09-23T00:14:06.856Z,85.11
2022-09-23T00:15:08.887Z,85.30
2022-09-23T00:16:06.970Z,85.27
2022-09-23T00:17:07.677Z,84.94
2022-09-23T00:18:07.022Z,84.62
2022-09-23T00:19:06.856Z,84.61
2022-09-23T00:20:06.771Z,84.81
2022-09-23T00:21:06.654Z,84.89
2022-09-23T00:22:06.995Z,84.74
2022-09-23T00:23:06.973Z,84.92
2022-09-23T00:24:06.923Z,85.08
2022-09-23T00:25:08.141Z,84.79
2022-09-23T00:26:06.541Z,84.79
2022-09-23T00:27:06.894Z,84.67
2022-09-23T00:28:06.629Z,84.68
2022-09-23T00:29:08.622Z,84.93
2022-09-23T00:30:06.672Z,85.12
2022-09-23T00:31:06.755Z,85.32
2022-09-23T00:32:07.043Z,85.55
2022-09-23T00:33:06.912Z,85.55
2022-09-23T00:34:06.713Z,85.47
2022-09-23T00:35:08.081Z,85.16
2022-09-23T00:36:06.801Z,84.78
2022-09-23T00:37:08.043Z,84.69
2022-09-23T00:38:06.711Z,84.64
2022-09-23T00:39:08.288Z,85.18
2022-09-23T00:40:08.012Z,85.26
2022-09-23T00:41:07.577Z,85.10
2022-09-23T00:42:06.947Z,85.05
2022-09-23T00:43:06.635Z,85.12
2022-09-23T00:44:06.959Z,85.22
2022-09-23T00:45:07.770Z,84.88
2022-09-23T00:46:06.666Z,84.87
2022-09-23T00:47:07.732Z,84.88
2022-09-23T00:48:06.825Z,84.98
2022-09-23T00:49:06.882Z,85.05
2022-09-23T00:50:06.597Z,85.25
2022-09-23T00:51:06.645Z,85.12
2022-09-23T00:52:06.451Z,85.25
2022-09-23T00:53:06.762Z,85.28
2022-09-23T00:54:06.656Z,85.26
2022-09-23T00:55:06.367Z,85.14
2022-09-23T00:56:06.177Z,85.08
2022-09-23T00:57:06.501Z,85.25
2022-09-23T00:58:06.535Z,85.50
2022-09-23T00:59:07.504Z,85.76
2022-09-23T01:00:06.247Z,85.74
2022-09-23T01:01:06.807Z,85.66
2022-09-23T01:02:06.363Z,85.65
2022-09-23T01:03:06.159Z,85.34
2022-09-23T01:04:06.405Z,85.58
2022-09-23T01:05:08.334Z,85.50
2022-09-23T01:06:06.178Z,85.19
2022-09-23T01:07:07.307Z,85.43
2022-09-23T01:08:06.823Z,85.25
2022-09-23T01:09:06.835Z,85.20
2022-09-23T01:10:06.019Z,85.55
2022-09-23T01:11:06.299Z,85.74
2022-09-23T01:12:06.232Z,85.37
2022-09-23T01:13:07.409Z,85.19
2022-09-23T01:14:05.861Z,85.29
2022-09-23T01:15:06.139Z,85.58
2022-09-23T01:16:06.071Z,85.40
2022-09-23T01:17:07.403Z,85.50
2022-09-23T01:18:05.989Z,85.44
2022-09-23T01:19:06.566Z,85.51
2022-09-23T01:20:06.269Z,85.64
2022-09-23T01:21:06.105Z,85.85
2022-09-23T01:22:05.776Z,85.95
2022-09-23T01:23:07.472Z,85.89
2022-09-23T01:24:06.626Z,85.65
2022-09-23T01:25:07.430Z,85.52
2022-09-23T01:26:05.999Z,85.32
2022-09-23T01:27:07.213Z,85.12
2022-09-23T01:28:05.785Z,85.01
2022-09-23T01:29:06.147Z,85.16
2022-09-23T01:30:05.830Z,84.98
2022-09-23T01:31:05.907Z,84.88
2022-09-23T01:32:06.010Z,84.76
2022-09-23T01:33:05.951Z,84.75
2022-09-23T01:34:06.029Z,84.90
2022-09-23T01:35:05.783Z,85.01
2022-09-23T01:36:06.890Z,85.12
2022-09-23T01:37:06.000Z,85.22
2022-09-23T01:38:05.965Z,85.10
2022-09-23T01:39:07.438Z,85.01
2022-09-23T01:40:05.706Z,85.10
2022-09-23T01:41:06.624Z,85.28
2022-09-23T01:42:06.069Z,85.25
2022-09-23T01:43:05.740Z,85.30
2022-09-23T01:44:05.436Z,85.22
2022-09-23T01:45:06.827Z,85.06
2022-09-23T01:46:06.103Z,85.18
2022-09-23T01:47:06.166Z,85.32
2022-09-23T01:48:05.937Z,85.43
2022-09-23T01:49:06.999Z,85.42
2022-09-23T01:50:06.069Z,85.27
2022-09-23T01:51:06.766Z,85.24
2022-09-23T01:52:06.182Z,85.26
2022-09-23T01:53:05.616Z,85.20
2022-09-23T01:54:05.467Z,85.33
2022-09-23T01:55:05.349Z,85.43
2022-09-23T01:56:05.519Z,85.48
2022-09-23T01:57:05.665Z,85.71
2022-09-23T01:58:05.638Z,85.51
2022-09-23T01:59:05.886Z,85.50
2022-09-23T02:00:05.410Z,85.25
2022-09-23T02:01:06.970Z,85.05
2022-09-23T02:02:05.726Z,85.18
2022-09-23T02:03:06.008Z,85.58
2022-09-23T02:04:06.358Z,85.40
2022-09-23T02:05:07.628Z,85.33
2022-09-23T02:06:05.457Z,85.40
2022-09-23T02:07:05.584Z,85.47
2022-09-23T02:08:05.485Z,85.21
2022-09-23T02:09:05.445Z,84.97
2022-09-23T02:10:05.384Z,85.11
2022-09-23T02:11:05.772Z,84.93
2022-09-23T02:12:05.121Z,84.74
2022-09-23T02:13:05.345Z,84.99
2022-09-23T02:14:05.295Z,85.25
2022-09-23T02:15:05.317Z,85.27
2022-09-23T02:16:06.078Z,85.49
2022-09-23T02:17:05.575Z,85.65
2022-09-23T02:18:05.688Z,85.72
2022-09-23T02:19:05.487Z,85.62
2022-09-23T02:20:05.153Z,85.50
2022-09-23T02:21:06.325Z,85.42
2022-09-23T02:22:05.466Z,85.22
2022-09-23T02:23:05.410Z,85.30
2022-09-23T02:24:05.392Z,85.04
2022-09-23T02:25:05.483Z,85.10
2022-09-23T02:26:05.014Z,85.17
2022-09-23T02:27:05.214Z,85.33
2022-09-23T02:28:05.097Z,85.38
2022-09-23T02:29:05.479Z,85.03
2022-09-23T02:30:05.323Z,85.00
2022-09-23T02:31:05.318Z,85.04
2022-09-23T02:32:04.945Z,84.99
2022-09-23T02:33:06.085Z,84.93
2022-09-23T02:34:05.269Z,85.12
2022-09-23T02:35:05.781Z,85.28
2022-09-23T02:36:04.796Z,85.16
2022-09-23T02:37:06.345Z,84.98
2022-09-23T02:38:05.179Z,84.96
2022-09-23T02:39:06.045Z,84.98
2022-09-23T02:40:05.233Z,85.04
2022-09-23T02:41:05.207Z,85.16
2022-09-23T02:42:05.043Z,85.14
2022-09-23T02:43:05.424Z,85.20
2022-09-23T02:44:04.953Z,85.01
2022-09-23T02:45:04.960Z,85.10
2022-09-23T02:46:04.877Z,85.24
2022-09-23T02:47:05.289Z,85.34
2022-09-23T02:48:05.369Z,85.16
2022-09-23T02:49:04.892Z,85.12
2022-09-23T02:50:05.084Z,84.91
2022-09-23T02:51:04.758Z,84.96
2022-09-23T02:52:04.975Z,85.16
2022-09-23T02:53:06.260Z,85.49
2022-09-23T02:54:04.780Z,85.56
2022-09-23T02:55:06.190Z,85.86
2022-09-23T02:56:04.669Z,85.77
2022-09-23T02:57:04.799Z,85.94
2022-09-23T02:58:05.114Z,85.79
2022-09-23T02:59:04.971Z,85.53
2022-09-23T03:00:04.921Z,85.38
2022-09-23T03:01:06.935Z,85.68
2022-09-23T03:02:04.827Z,85.62
2022-09-23T03:03:05.016Z,85.61
2022-09-23T03:04:07.756Z,85.55
2022-09-23T03:05:05.199Z,85.45
2022-09-23T03:06:04.935Z,85.44
2022-09-23T03:07:05.964Z,85.43
2022-09-23T03:08:06.071Z,85.26
2022-09-23T03:09:04.580Z,84.99
2022-09-23T03:10:04.452Z,84.84
2022-09-23T03:11:04.682Z,84.83
2022-09-23T03:12:04.428Z,84.95
2022-09-23T03:13:04.691Z,84.99
2022-09-23T03:14:06.098Z,84.96
2022-09-23T03:15:04.724Z,85.02
2022-09-23T03:16:04.794Z,85.06
2022-09-23T03:17:04.657Z,84.95
2022-09-23T03:18:04.911Z,84.91
2022-09-23T03:19:04.765Z,84.81
2022-09-23T03:20:04.409Z,85.07
2022-09-23T03:21:05.673Z,85.03
2022-09-23T03:22:04.516Z,85.17
2022-09-23T03:23:05.573Z,85.28
2022-09-23T03:24:04.363Z,85.66
2022-09-23T03:25:04.484Z,85.39
2022-09-23T03:26:04.914Z,85.31
2022-09-23T03:27:04.486Z,85.55
2022-09-23T03:28:04.888Z,85.81
2022-09-23T03:29:04.688Z,85.75
2022-09-23T03:30:04.439Z,85.42
2022-09-23T03:31:05.738Z,85.39
2022-09-23T03:32:04.438Z,85.11
2022-09-23T03:33:04.120Z,84.91
2022-09-23T03:34:04.233Z,84.72
2022-09-23T03:35:04.309Z,84.88
2022-09-23T03:36:04.323Z,84.87
2022-09-23T03:37:03.995Z,84.96
2022-09-23T03:38:04.627Z,84.96
2022-09-23T03:39:05.771Z,84.86
2022-09-23T03:40:04.353Z,84.88
2022-09-23T03:41:04.319Z,84.93
2022-09-23T03:42:04.151Z,84.88
2022-09-23T03:43:04.085Z,84.87
2022-09-23T03:44:04.460Z,84.71
2022-09-23T03:45:04.384Z,84.77
2022-09-23T03:46:05.241Z,84.96
2022-09-23T03:47:04.381Z,85.04
2022-09-23T03:48:03.900Z,85.08
2022-09-23T03:49:04.057Z,85.18
2022-09-23T03:50:04.038Z,85.07
2022-09-23T03:51:04.357Z,84.98
2022-09-23T03:52:04.146Z,85.08
2022-09-23T03:53:04.257Z,85.08
2022-09-23T03:54:04.328Z,85.10
2022-09-23T03:55:05.243Z,85.27
2022-09-23T03:56:04.192Z,85.08
2022-09-23T03:57:05.319Z,85.02
2022-09-23T03:58:04.093Z,85.28
2022-09-23T03:59:04.231Z,85.47
2022-09-23T04:00:04.430Z,85.48
2022-09-23T04:01:03.855Z,85.70
2022-09-23T04:02:05.279Z,85.93
2022-09-23T04:03:07.136Z,85.83
2022-09-23T04:04:05.449Z,85.70
2022-09-23T04:05:03.730Z,85.38
2022-09-23T04:06:04.824Z,85.22
2022-09-23T04:07:04.058Z,85.00
2022-09-23T04:08:03.956Z,84.85
2022-09-23T04:09:04.387Z,84.82
2022-09-23T04:10:03.762Z,84.90
2022-09-23T04:11:06.270Z,84.77
2022-09-23T04:12:03.811Z,84.70
2022-09-23T04:13:03.722Z,85.04
2022-09-23T04:14:03.699Z,85.69
2022-09-23T04:15:03.978Z,85.87
2022-09-23T04:16:04.310Z,85.98
2022-09-23T04:17:03.992Z,85.75
2022-09-23T04:18:03.969Z,85.56
2022-09-23T04:19:05.126Z,85.58
2022-09-23T04:20:04.327Z,85.56
2022-09-23T04:21:03.746Z,85.64
2022-09-23T04:22:03.953Z,85.68
2022-09-23T04:23:04.342Z,85.48
2022-09-23T04:24:03.601Z,85.32
2022-09-23T04:25:03.801Z,85.47
2022-09-23T04:26:03.292Z,85.71
2022-09-23T04:27:25.172Z,85.95
2022-09-23T04:28:03.528Z,85.94
2022-09-23T04:29:04.981Z,85.96
2022-09-23T04:30:03.429Z,85.78
2022-09-23T04:31:03.678Z,85.86
2022-09-23T04:32:03.340Z,85.71
2022-09-23T04:33:03.960Z,85.61
2022-09-23T04:34:03.535Z,85.75
2022-09-23T04:35:03.675Z,85.77
2022-09-23T04:36:03.686Z,85.83
2022-09-23T04:37:04.636Z,85.81
2022-09-23T04:38:03.469Z,85.75
2022-09-23T04:39:04.525Z,85.86
2022-09-23T04:40:04.454Z,85.75
2022-09-23T04:41:03.442Z,85.81
2022-09-23T04:42:03.541Z,85.86
2022-09-23T04:43:03.310Z,85.90
2022-09-23T04:44:03.301Z,85.97
2022-09-23T04:45:03.636Z,86.12
2022-09-23T04:46:03.417Z,86.06
2022-09-23T04:47:03.713Z,86.03
2022-09-23T04:48:03.583Z,86.17
2022-09-23T04:49:03.334Z,86.29
2022-09-23T04:50:04.152Z,86.49
2022-09-23T04:51:03.526Z,86.43
2022-09-23T04:52:03.401Z,86.49
2022-09-23T04:53:03.348Z,86.69
2022-09-23T04:54:03.221Z,86.84
2022-09-23T04:55:04.188Z,86.58
2022-09-23T04:56:04.006Z,86.54
2022-09-23T04:57:03.259Z,86.46
2022-09-23T04:58:03.245Z,86.41
2022-09-23T04:59:03.453Z,86.54
2022-09-23T05:00:02.960Z,86.60
2022-09-23T05:01:05.383Z,86.79
2022-09-23T05:02:02.945Z,86.63
2022-09-23T05:03:03.372Z,86.58
2022-09-23T05:04:03.064Z,86.61
2022-09-23T05:05:02.784Z,86.69
2022-09-23T05:06:03.279Z,86.73
2022-09-23T05:07:03.651Z,86.60
2022-09-23T05:08:03.116Z,86.56
2022-09-23T05:09:03.242Z,86.46
2022-09-23T05:10:02.932Z,86.31
2022-09-23T05:11:02.747Z,86.42
2022-09-23T05:12:02.951Z,86.32
2022-09-23T05:13:03.495Z,86.39
2022-09-23T05:14:03.644Z,86.51
2022-09-23T05:15:03.194Z,86.55
2022-09-23T05:16:02.829Z,86.73
2022-09-23T05:17:03.218Z,86.69
2022-09-23T05:18:02.918Z,86.61
2022-09-23T05:19:02.945Z,86.46
2022-09-23T05:20:02.727Z,86.30
2022-09-23T05:21:03.050Z,86.30
2022-09-23T05:22:03.131Z,86.37
2022-09-23T05:23:05.299Z,86.52
2022-09-23T05:24:03.157Z,86.55
2022-09-23T05:25:03.119Z,86.50
2022-09-23T05:26:02.994Z,86.53
2022-09-23T05:27:02.866Z,86.64
2022-09-23T05:28:02.795Z,86.53
2022-09-23T05:29:02.688Z,86.47
2022-09-23T05:30:02.920Z,86.36
2022-09-23T05:31:02.785Z,86.54
2022-09-23T05:32:02.886Z,86.61
2022-09-23T05:33:03.222Z,86.67
2022-09-23T05:34:02.616Z,86.74
2022-09-23T05:35:03.634Z,86.74
2022-09-23T05:36:02.503Z,86.94
2022-09-23T05:37:02.843Z,86.97
2022-09-23T05:38:03.105Z,86.98
2022-09-23T05:39:09.877Z,86.83
2022-09-23T05:40:02.464Z,86.79
2022-09-23T05:41:02.596Z,86.97
2022-09-23T05:42:02.922Z,87.09
2022-09-23T05:43:02.712Z,87.09
2022-09-23T05:44:02.715Z,87.11
2022-09-23T05:45:03.299Z,87.11
2022-09-23T05:46:05.893Z,87.07
2022-09-23T05:47:03.579Z,87.16
2022-09-23T05:48:02.298Z,87.19
2022-09-23T05:49:03.653Z,87.22
2022-09-23T05:50:02.307Z,87.25
2022-09-23T05:51:03.177Z,87.17
2022-09-23T05:52:02.593Z,87.13
2022-09-23T05:53:02.300Z,87.15
2022-09-23T05:54:02.248Z,87.28
2022-09-23T05:55:02.576Z,87.19
2022-09-23T05:57:04.992Z,87.24
2022-09-23T05:58:02.531Z,87.35
2022-09-23T05:59:02.363Z,87.43
2022-09-23T06:00:02.267Z,87.68
2022-09-23T06:01:02.326Z,87.78
2022-09-23T06:02:04.861Z,87.67
2022-09-23T06:03:02.996Z,87.47
2022-09-23T06:04:03.083Z,87.44
2022-09-23T06:05:02.586Z,87.33
2022-09-23T06:06:02.635Z,87.23
2022-09-23T06:07:03.684Z,87.25
2022-09-23T06:08:02.448Z,87.02
2022-09-23T06:09:02.960Z,86.84
2022-09-23T06:10:02.588Z,86.84
2022-09-23T06:11:02.696Z,86.86
2022-09-23T06:12:03.073Z,86.92
2022-09-23T06:13:02.076Z,87.00
2022-09-23T06:14:03.799Z,86.94
2022-09-23T06:15:02.558Z,86.87
2022-09-23T06:16:02.871Z,86.86
2022-09-23T06:17:03.655Z,86.84
2022-09-23T06:18:02.152Z,86.87
2022-09-23T06:19:05.360Z,87.13
2022-09-23T06:20:02.042Z,86.96
2022-09-23T06:21:02.527Z,87.05
2022-09-23T06:22:02.685Z,87.17
2022-09-23T06:23:05.972Z,87.19
2022-09-23T06:24:01.852Z,87.85
2022-09-23T06:25:02.243Z,88.07
2022-09-23T06:26:02.100Z,87.69
2022-09-23T06:27:02.865Z,87.86
2022-09-23T06:28:02.129Z,87.51
2022-09-23T06:29:23.407Z,86.89
2022-09-23T06:30:02.141Z,86.63
2022-09-23T06:31:02.358Z,86.41
2022-09-23T06:32:02.519Z,86.70
2022-09-23T06:33:02.155Z,86.76
2022-09-23T06:34:10.859Z,87.06
2022-09-23T06:35:03.489Z,87.38
2022-09-23T06:36:02.620Z,87.51
2022-09-23T06:37:12.271Z,87.56
2022-09-23T06:38:03.547Z,87.51
2022-09-23T06:39:02.691Z,87.76
2022-09-23T06:40:01.873Z,87.86
2022-09-23T06:41:01.835Z,87.67
2022-09-23T06:42:02.291Z,87.73
2022-09-23T06:43:02.149Z,87.82
2022-09-23T06:44:02.404Z,88.18
2022-09-23T06:45:02.309Z,88.13
2022-09-23T06:46:02.313Z,88.01
2022-09-23T06:47:02.556Z,87.67
2022-09-23T06:48:01.769Z,87.58
2022-09-23T06:49:01.919Z,87.45
2022-09-23T06:50:01.951Z,87.40
2022-09-23T06:51:01.566Z,86.91
2022-09-23T06:52:01.823Z,87.03
2022-09-23T06:53:02.703Z,87.10
2022-09-23T06:54:01.437Z,86.48
2022-09-23T06:55:02.189Z,86.31
2022-09-23T06:56:01.567Z,86.94
2022-09-23T06:57:01.874Z,86.70
2022-09-23T06:58:01.532Z,86.46
2022-09-23T06:59:01.534Z,86.68
2022-09-23T07:00:02.155Z,86.79
2022-09-23T07:01:01.890Z,87.22
2022-09-23T07:02:01.540Z,86.46
2022-09-23T07:03:01.657Z,85.67
2022-09-23T07:04:01.473Z,85.25
2022-09-23T07:05:02.137Z,85.28
2022-09-23T07:06:01.953Z,84.60
2022-09-23T07:07:02.198Z,84.88
2022-09-23T07:08:01.477Z,84.79
2022-09-23T07:09:02.492Z,84.86
2022-09-23T07:10:01.944Z,84.79
2022-09-23T07:11:02.202Z,85.08
2022-09-23T07:12:03.295Z,85.14
2022-09-23T07:13:02.405Z,85.33
2022-09-23T07:14:02.762Z,84.90
2022-09-23T07:15:01.678Z,84.40
2022-09-23T07:16:02.557Z,84.33
2022-09-23T07:17:04.943Z,84.35
2022-09-23T07:18:03.764Z,84.70
2022-09-23T07:19:01.831Z,84.75
2022-09-23T07:20:03.068Z,84.39
2022-09-23T07:21:01.431Z,84.54
2022-09-23T07:22:01.309Z,84.80
2022-09-23T07:23:01.474Z,85.03
2022-09-23T07:24:01.343Z,85.33
2022-09-23T07:25:01.338Z,84.79
2022-09-23T07:26:02.021Z,84.45
2022-09-23T07:27:00.928Z,84.25
2022-09-23T07:28:00.777Z,84.37
2022-09-23T07:29:00.769Z,84.42
2022-09-23T07:30:00.763Z,84.23
2022-09-23T07:31:01.179Z,84.33
2022-09-23T07:32:12.355Z,84.50
2022-09-23T07:33:04.772Z,84.22
2022-09-23T07:34:01.738Z,83.99
2022-09-23T07:35:00.697Z,84.20
2022-09-23T07:36:00.684Z,84.25
2022-09-23T07:37:00.783Z,84.45
2022-09-23T07:38:00.646Z,83.69
2022-09-23T07:39:02.735Z,84.00
2022-09-23T07:40:00.667Z,83.94
2022-09-23T07:41:00.646Z,83.49
2022-09-23T07:42:00.558Z,83.25
2022-09-23T07:43:00.696Z,83.07
2022-09-23T07:44:00.695Z,82.68
2022-09-23T07:45:00.737Z,82.66
2022-09-23T07:46:00.671Z,82.57
2022-09-23T07:47:00.599Z,82.33
2022-09-23T07:48:00.496Z,82.21
2022-09-23T07:49:01.606Z,81.95
2022-09-23T07:50:00.587Z,82.04
2022-09-23T07:51:00.515Z,81.98
2022-09-23T07:52:00.434Z,82.19
2022-09-23T07:53:00.674Z,81.93
2022-09-23T07:54:00.405Z,81.59
2022-09-23T07:55:00.435Z,81.25
2022-09-23T07:56:00.523Z,81.38
2022-09-23T07:57:00.444Z,81.24
2022-09-23T07:58:00.345Z,80.41
2022-09-23T07:59:00.808Z,80.01
2022-09-23T08:00:00.324Z,80.24
2022-09-23T08:01:01.405Z,80.13
2022-09-23T08:02:00.379Z,79.97
2022-09-23T08:03:00.496Z,79.69
2022-09-23T08:04:00.379Z,79.12
2022-09-23T08:05:00.336Z,79.13
2022-09-23T08:06:00.236Z,79.16
2022-09-23T08:07:01.337Z,78.45
2022-09-23T08:08:00.243Z,78.51
2022-09-23T08:09:02.416Z,78.77
2022-09-23T08:10:00.376Z,78.28
2022-09-23T08:11:00.244Z,79.00
2022-09-23T08:12:00.155Z,78.66
2022-09-23T08:13:01.176Z,76.69
2022-09-23T08:14:00.255Z,76.52
2022-09-23T08:15:02.265Z,76.94
2022-09-23T08:16:00.163Z,77.22
2022-09-23T08:17:00.255Z,76.68
2022-09-23T08:18:00.215Z,77.00
2022-09-23T08:19:00.189Z,76.86
2022-09-23T08:20:00.183Z,76.35
2022-09-23T08:21:00.154Z,76.15
2022-09-23T08:22:00.028Z,76.18
2022-09-23T08:23:00.203Z,76.13
2022-09-23T08:24:00.089Z,76.90
2022-09-23T08:25:00.033Z,77.06
2022-09-23T08:26:00.185Z,76.88
2022-09-23T08:27:00.059Z,76.95
2022-09-23T08:28:00.165Z,76.60
2022-09-23T08:29:00.016Z,76.88
2022-09-23T08:29:59.914Z,76.90
2022-09-23T08:31:00.001Z,76.35
2022-09-23T08:31:59.934Z,76.15
2022-09-23T08:32:59.886Z,76.18
2022-09-23T08:34:00.108Z,76.01
2022-09-23T08:34:59.904Z,75.57
2022-09-23T08:35:59.973Z,75.41
2022-09-23T08:36:59.864Z,74.91
2022-09-23T08:37:59.874Z,74.79
2022-09-23T08:38:59.876Z,74.32
2022-09-23T08:39:59.873Z,74.50
2022-09-23T08:40:59.761Z,74.21
2022-09-23T08:41:59.916Z,75.28
2022-09-23T08:42:59.838Z,75.08
2022-09-23T08:43:59.851Z,74.65
2022-09-23T08:44:59.818Z,73.92
2022-09-23T08:45:59.830Z,73.74
2022-09-23T08:46:59.675Z,72.89
2022-09-23T08:47:59.715Z,73.10
2022-09-23T08:48:59.673Z,72.65
2022-09-23T08:49:59.754Z,72.12
2022-09-23T08:50:59.772Z,71.83
2022-09-23T08:51:59.773Z,71.85
2022-09-23T08:52:59.655Z,72.18
2022-09-23T08:53:59.706Z,72.37
2022-09-23T08:54:59.609Z,72.67
2022-09-23T08:55:59.597Z,72.26
2022-09-23T08:56:59.544Z,71.79
2022-09-23T08:58:24.861Z,73.63
2022-09-23T08:59:00.794Z,73.22
2022-09-23T08:59:59.642Z,70.95
2022-09-23T09:00:59.869Z,72.03
2022-09-23T09:01:59.503Z,71.71
2022-09-23T09:02:59.604Z,71.38
2022-09-23T09:03:59.464Z,71.65
2022-09-23T09:05:00.524Z,70.95
2022-09-23T09:05:59.490Z,71.65
2022-09-23T09:07:12.380Z,71.01
2022-09-23T09:08:00.418Z,71.94
2022-09-23T09:08:59.530Z,71.82
2022-09-23T09:09:59.524Z,70.77
2022-09-23T09:10:59.474Z,70.96
2022-09-23T09:11:59.364Z,71.60
2022-09-23T09:12:59.460Z,72.99
2022-09-23T09:13:59.352Z,72.12
2022-09-23T09:14:59.374Z,70.99
2022-09-23T09:15:59.419Z,71.30
2022-09-23T09:17:00.715Z,71.03
2022-09-23T09:17:59.387Z,70.79
2022-09-23T09:18:59.379Z,71.84
2022-09-23T09:19:59.263Z,71.99
2022-09-23T09:20:59.313Z,70.59
2022-09-23T09:21:59.224Z,70.50
2022-09-23T09:22:59.297Z,69.79
2022-09-23T09:23:59.426Z,70.09
2022-09-23T09:24:59.244Z,69.64
2022-09-23T09:25:59.173Z,68.79
2022-09-23T09:26:59.331Z,68.79
2022-09-23T09:27:59.124Z,68.57
2022-09-23T09:29:11.409Z,69.93
2022-09-23T09:30:00.107Z,69.10
2022-09-23T09:30:59.278Z,70.35
2022-09-23T09:31:59.109Z,69.01
2022-09-23T09:32:59.234Z,69.54
2022-09-23T09:33:59.052Z,69.66
2022-09-23T09:34:59.204Z,70.17
2022-09-23T09:35:59.024Z,69.59
2022-09-23T09:37:04.658Z,69.26
2022-09-23T09:38:00.039Z,70.65
2022-09-23T09:38:59.161Z,70.45
2022-09-23T09:39:58.964Z,70.82
2022-09-23T09:40:59.061Z,70.72
2022-09-23T09:41:58.962Z,69.73
2022-09-23T09:42:59.102Z,70.36
2022-09-23T09:43:58.954Z,70.19
2022-09-23T09:44:58.978Z,68.54
2022-09-23T09:45:58.883Z,68.62
2022-09-23T09:46:58.915Z,70.38
2022-09-23T09:47:58.874Z,70.66
2022-09-23T09:48:59.014Z,71.38
2022-09-23T09:49:58.855Z,71.20
2022-09-23T09:50:59.064Z,68.43
2022-09-23T09:52:03.031Z,67.90
2022-09-23T09:52:58.753Z,67.88
2022-09-23T09:53:58.830Z,66.67
2022-09-23T09:54:58.747Z,66.86
2022-09-23T09:56:03.693Z,67.66
2022-09-23T09:56:59.693Z,67.38
2022-09-23T09:57:58.709Z,68.91
2022-09-23T09:58:58.758Z,71.15
2022-09-23T09:59:58.722Z,68.74
2022-09-23T10:00:58.638Z,69.38
2022-09-23T10:01:58.808Z,68.80
2022-09-23T10:02:58.657Z,67.33
2022-09-23T10:03:59.611Z,66.94
2022-09-23T10:04:58.582Z,66.85
2022-09-23T10:05:58.664Z,67.76
2022-09-23T10:06:58.546Z,67.16
2022-09-23T10:07:58.714Z,65.45
2022-09-23T10:08:58.556Z,64.60
2022-09-23T10:10:02.040Z,65.57
2022-09-23T10:10:59.598Z,66.78
2022-09-23T10:11:58.603Z,65.84
2022-09-23T10:12:58.466Z,65.63
2022-09-23T10:13:58.644Z,66.71
2022-09-23T10:14:58.493Z,64.92
2022-09-23T10:15:58.572Z,66.65
2022-09-23T10:16:58.555Z,68.47
2022-09-23T10:17:58.614Z,65.54
2022-09-23T10:18:58.433Z,64.11
2022-09-23T10:19:58.502Z,63.82
2022-09-23T10:20:58.357Z,62.04
2022-09-23T10:21:58.422Z,62.59
2022-09-23T10:22:58.365Z,64.28
2022-09-23T10:23:58.384Z,63.72
2022-09-23T10:24:58.414Z,63.87
2022-09-23T10:25:58.444Z,63.57
2022-09-23T10:26:58.273Z,62.53
2022-09-23T10:27:58.388Z,63.29
2022-09-23T10:28:58.306Z,61.48
2022-09-23T10:29:58.326Z,63.02
2022-09-23T10:30:58.361Z,62.64
2022-09-23T10:31:58.285Z,61.31
2022-09-23T10:32:58.376Z,60.10
2022-09-23T10:33:58.275Z,60.30
2022-09-23T10:34:58.177Z,57.78
2022-09-23T10:35:58.266Z,59.15
2022-09-23T10:36:58.217Z,61.57
2022-09-23T10:37:58.340Z,60.91
2022-09-23T10:38:58.226Z,59.16
2022-09-23T10:39:58.191Z,57.86
2022-09-23T10:40:58.241Z,57.76
2022-09-23T10:41:58.139Z,59.50
2022-09-23T10:42:58.070Z,57.89
2022-09-23T10:43:59.201Z,59.19
2022-09-23T10:44:58.080Z,59.77
2022-09-23T10:46:00.182Z,57.54
2022-09-23T10:46:58.175Z,59.12
2022-09-23T10:47:58.061Z,57.54
2022-09-23T10:48:58.124Z,56.19
2022-09-23T10:49:58.123Z,58.93
2022-09-23T10:50:59.513Z,59.84
2022-09-23T10:51:59.005Z,56.13
2022-09-23T10:52:57.975Z,57.10
2022-09-23T10:53:57.996Z,56.72
2022-09-23T10:54:57.915Z,56.03
2022-09-23T10:55:57.969Z,56.79
2022-09-23T10:56:58.995Z,57.00
2022-09-23T10:57:57.987Z,59.28
2022-09-23T10:58:57.867Z,57.72
2022-09-23T10:59:58.023Z,58.32
2022-09-23T11:00:57.926Z,59.33
2022-09-23T11:01:57.948Z,55.15
2022-09-23T11:02:57.852Z,51.85
2022-09-23T11:03:57.987Z,50.31
2022-09-23T11:04:57.842Z,49.79
2022-09-23T11:05:57.781Z,51.84
2022-09-23T11:06:57.835Z,53.77
2022-09-23T11:07:57.853Z,54.37
2022-09-23T11:08:57.750Z,57.27
2022-09-23T11:09:57.983Z,57.44
2022-09-23T11:10:57.803Z,56.38
2022-09-23T11:11:57.725Z,55.45
2022-09-23T11:12:57.680Z,54.92
2022-09-23T11:13:57.797Z,54.45
2022-09-23T11:14:57.647Z,55.55
2022-09-23T11:15:57.656Z,55.49
2022-09-23T11:16:57.934Z,56.84
2022-09-23T11:17:57.690Z,54.10
2022-09-23T11:18:57.595Z,54.40
2022-09-23T11:19:57.716Z,55.77
2022-09-23T11:20:57.589Z,51.60
2022-09-23T11:21:57.603Z,53.05
2022-09-23T11:22:57.741Z,53.91
2022-09-23T11:23:57.671Z,54.47
2022-09-23T11:24:57.719Z,50.06
2022-09-23T11:25:57.571Z,48.76
2022-09-23T11:26:57.580Z,49.79
2022-09-23T11:27:57.641Z,50.28
2022-09-23T11:28:57.463Z,49.22
2022-09-23T11:29:57.773Z,50.36
2022-09-23T11:30:57.618Z,52.22
2022-09-23T11:31:59.646Z,52.43
2022-09-23T11:32:57.436Z,52.48
2022-09-23T11:33:59.794Z,51.95
2022-09-23T11:34:57.563Z,53.36
2022-09-23T11:35:57.395Z,53.84
2022-09-23T11:36:57.370Z,54.43
2022-09-23T11:37:57.465Z,54.70
2022-09-23T11:38:57.355Z,52.78
2022-09-23T11:39:59.425Z,50.20
2022-09-23T11:40:57.410Z,50.99
2022-09-23T11:41:57.396Z,51.54
2022-09-23T11:42:57.278Z,51.13
2022-09-23T11:43:57.467Z,53.21
2022-09-23T11:44:57.297Z,52.84
2022-09-23T11:45:58.367Z,51.13
2022-09-23T11:46:57.344Z,51.34
2022-09-23T11:47:57.339Z,50.18
2022-09-23T11:48:57.280Z,48.50
2022-09-23T11:49:57.263Z,47.25
2022-09-23T11:50:57.168Z,47.19
2022-09-23T11:51:58.459Z,46.65
2022-09-23T11:52:57.180Z,45.99
2022-09-23T11:53:58.250Z,46.80
2022-09-23T11:54:57.217Z,47.78
2022-09-23T11:55:58.435Z,47.89
2022-09-23T11:56:57.109Z,46.44
2022-09-23T11:57:57.149Z,45.15
2022-09-23T11:58:59.694Z,46.16
2022-09-23T11:59:57.221Z,46.83
2022-09-23T12:01:00.890Z,45.65
2022-09-23T12:01:57.953Z,46.40
2022-09-23T12:03:04.911Z,47.46
2022-09-23T12:04:10.609Z,47.45
2022-09-23T12:04:58.669Z,44.33
2022-09-23T12:05:57.220Z,46.99
2022-09-23T12:06:58.084Z,48.30
2022-09-23T12:07:57.083Z,47.49
2022-09-23T12:08:57.047Z,48.20
2022-09-23T12:09:58.502Z,46.45
2022-09-23T12:10:56.943Z,45.61
2022-09-23T12:11:57.063Z,47.03
2022-09-23T12:12:56.975Z,48.71
2022-09-23T12:13:56.900Z,49.38
2022-09-23T12:14:57.015Z,49.78
2022-09-23T12:15:56.837Z,47.57
2022-09-23T12:16:57.057Z,48.29
2022-09-23T12:17:56.836Z,48.35
2022-09-23T12:18:57.065Z,49.02
2022-09-23T12:19:56.930Z,47.24
2022-09-23T12:20:56.866Z,46.35
2022-09-23T12:21:56.766Z,44.11
2022-09-23T12:22:56.817Z,42.09
2022-09-23T12:23:56.728Z,42.17
2022-09-23T12:24:57.786Z,41.96
2022-09-23T12:25:56.754Z,42.02
2022-09-23T12:26:56.762Z,42.39
2022-09-23T12:27:56.828Z,41.38
2022-09-23T12:28:56.768Z,43.30
2022-09-23T12:29:56.781Z,43.28
2022-09-23T12:30:56.802Z,42.05
2022-09-23T12:31:56.669Z,41.85
2022-09-23T12:32:56.749Z,41.72
2022-09-23T12:33:56.640Z,41.54
2022-09-23T12:34:56.740Z,41.60
2022-09-23T12:35:56.619Z,43.12
2022-09-23T12:36:56.662Z,44.95
2022-09-23T12:37:56.771Z,43.20
2022-09-23T12:39:17.627Z,44.38
2022-09-23T12:39:56.520Z,43.44
2022-09-23T12:40:56.548Z,43.03
2022-09-23T12:41:56.490Z,45.09
2022-09-23T12:42:56.673Z,43.80
2022-09-23T12:43:56.543Z,45.27
2022-09-23T12:44:56.474Z,47.51
2022-09-23T12:45:56.592Z,46.61
2022-09-23T12:46:56.483Z,44.13
2022-09-23T12:47:56.514Z,44.93
2022-09-23T12:48:56.504Z,44.30
2022-09-23T12:49:56.574Z,46.20
2022-09-23T12:50:56.513Z,45.92
2022-09-23T12:51:56.344Z,46.68
2022-09-23T12:52:56.466Z,46.27